sensor_id;sensor_type;location;lat;lon;timestamp;pressure;altitude;pressure_sealevel;temperature;humidity
46944;BME280;32678;43.852;25.952;2023-05-07T00:01:25;101476.38;;;19.47;53.60
46944;BME280;32678;43.852;25.952;2023-05-07T00:06:21;101484.97;;;19.52;53.15
46944;BME280;32678;43.852;25.952;2023-05-07T00:11:18;101493.72;;;19.38;53.02
46944;BME280;32678;43.852;25.952;2023-05-07T00:16:16;101484.88;;;19.54;53.07
46944;BME280;32678;43.852;25.952;2023-05-07T00:21:13;101498.69;;;19.29;54.85
46944;BME280;32678;43.852;25.952;2023-05-07T00:26:10;101500.50;;;19.13;55.32
46944;BME280;32678;43.852;25.952;2023-05-07T00:31:08;101508.41;;;19.14;54.79
46944;BME280;32678;43.852;25.952;2023-05-07T00:36:06;101508.47;;;19.13;55.14
46944;BME280;32678;43.852;25.952;2023-05-07T00:41:03;101509.78;;;18.90;55.55
46944;BME280;32678;43.852;25.952;2023-05-07T00:46:00;101512.25;;;18.77;55.06
46944;BME280;32678;43.852;25.952;2023-05-07T00:50:57;101513.81;;;18.81;55.10
46944;BME280;32678;43.852;25.952;2023-05-07T00:55:55;101519.91;;;18.99;54.46
46944;BME280;32678;43.852;25.952;2023-05-07T01:00:52;101517.13;;;19.16;53.72
46944;BME280;32678;43.852;25.952;2023-05-07T01:05:49;101518.69;;;19.20;53.70
46944;BME280;32678;43.852;25.952;2023-05-07T01:10:46;101518.78;;;19.19;54.08
46944;BME280;32678;43.852;25.952;2023-05-07T01:15:44;101521.44;;;19.34;53.64
46944;BME280;32678;43.852;25.952;2023-05-07T01:20:43;101510.88;;;19.17;54.02
46944;BME280;32678;43.852;25.952;2023-05-07T01:25:41;101503.88;;;18.85;55.03
46944;BME280;32678;43.852;25.952;2023-05-07T01:30:40;101506.19;;;18.75;55.12
46944;BME280;32678;43.852;25.952;2023-05-07T01:35:40;101504.53;;;18.73;55.22
46944;BME280;32678;43.852;25.952;2023-05-07T01:40:37;101511.53;;;18.58;55.10
46944;BME280;32678;43.852;25.952;2023-05-07T01:45:35;101506.41;;;18.55;55.32
46944;BME280;32678;43.852;25.952;2023-05-07T01:50:32;101499.03;;;18.43;55.69
46944;BME280;32678;43.852;25.952;2023-05-07T01:55:29;101492.88;;;18.27;55.14
46944;BME280;32678;43.852;25.952;2023-05-07T02:00:27;101488.66;;;18.23;53.78
46944;BME280;32678;43.852;25.952;2023-05-07T02:05:25;101473.00;;;18.34;53.35
46944;BME280;32678;43.852;25.952;2023-05-07T02:10:30;101471.19;;;18.34;52.91
46944;BME280;32678;43.852;25.952;2023-05-07T02:15:28;101470.53;;;18.31;53.11
46944;BME280;32678;43.852;25.952;2023-05-07T02:20:27;101470.22;;;18.19;53.52
46944;BME280;32678;43.852;25.952;2023-05-07T02:25:23;101464.63;;;18.08;53.71
46944;BME280;32678;43.852;25.952;2023-05-07T02:30:20;101462.81;;;18.09;53.71
46944;BME280;32678;43.852;25.952;2023-05-07T02:35:21;101461.94;;;18.26;53.29
46944;BME280;32678;43.852;25.952;2023-05-07T02:40:18;101457.50;;;18.26;53.08
46944;BME280;32678;43.852;25.952;2023-05-07T02:45:15;101456.56;;;18.43;52.42
46944;BME280;32678;43.852;25.952;2023-05-07T02:50:13;101470.84;;;18.25;51.64
46944;BME280;32678;43.852;25.952;2023-05-07T02:55:10;101461.53;;;18.00;52.46
46944;BME280;32678;43.852;25.952;2023-05-07T03:00:13;101471.59;;;18.11;52.58
46944;BME280;32678;43.852;25.952;2023-05-07T03:05:17;101479.72;;;18.08;52.70
46944;BME280;32678;43.852;25.952;2023-05-07T03:10:17;101485.19;;;17.70;53.66
46944;BME280;32678;43.852;25.952;2023-05-07T03:15:15;101486.81;;;17.90;53.56
46944;BME280;32678;43.852;25.952;2023-05-07T03:20:11;101491.13;;;17.93;52.81
46944;BME280;32678;43.852;25.952;2023-05-07T03:25:10;101499.38;;;17.69;52.82
46944;BME280;32678;43.852;25.952;2023-05-07T03:30:07;101499.38;;;17.69;53.17
46944;BME280;32678;43.852;25.952;2023-05-07T03:35:06;101498.44;;;18.05;52.16
46944;BME280;32678;43.852;25.952;2023-05-07T03:40:03;101511.44;;;18.27;51.04
46944;BME280;32678;43.852;25.952;2023-05-07T03:45:05;101507.13;;;18.24;51.38
46944;BME280;32678;43.852;25.952;2023-05-07T03:50:03;101510.22;;;18.16;51.69
46944;BME280;32678;43.852;25.952;2023-05-07T03:55:01;101511.34;;;18.28;50.38
46944;BME280;32678;43.852;25.952;2023-05-07T04:00:03;101505.97;;;18.30;50.27
46944;BME280;32678;43.852;25.952;2023-05-07T04:05:05;101510.59;;;18.26;49.63
46944;BME280;32678;43.852;25.952;2023-05-07T04:10:03;101506.69;;;18.16;49.41
46944;BME280;32678;43.852;25.952;2023-05-07T04:15:00;101517.25;;;18.17;49.34
46944;BME280;32678;43.852;25.952;2023-05-07T04:19:57;101513.31;;;18.25;49.21
46944;BME280;32678;43.852;25.952;2023-05-07T04:24:55;101521.06;;;17.95;49.67
46944;BME280;32678;43.852;25.952;2023-05-07T04:29:53;101532.09;;;17.87;50.84
46944;BME280;32678;43.852;25.952;2023-05-07T04:34:52;101546.47;;;17.64;51.81
46944;BME280;32678;43.852;25.952;2023-05-07T04:39:48;101547.69;;;17.59;53.03
46944;BME280;32678;43.852;25.952;2023-05-07T04:44:46;101541.94;;;16.95;56.05
46944;BME280;32678;43.852;25.952;2023-05-07T04:49:43;101559.00;;;17.06;56.24
46944;BME280;32678;43.852;25.952;2023-05-07T04:54:41;101554.06;;;16.61;57.27
46944;BME280;32678;43.852;25.952;2023-05-07T04:59:38;101556.09;;;17.12;56.37
46944;BME280;32678;43.852;25.952;2023-05-07T05:04:35;101557.09;;;17.46;55.34
46944;BME280;32678;43.852;25.952;2023-05-07T05:09:33;101563.81;;;16.79;57.82
46944;BME280;32678;43.852;25.952;2023-05-07T05:14:30;101571.88;;;16.76;59.73
46944;BME280;32678;43.852;25.952;2023-05-07T05:19:27;101566.63;;;16.56;62.76
46944;BME280;32678;43.852;25.952;2023-05-07T05:24:24;101559.16;;;16.66;62.91
46944;BME280;32678;43.852;25.952;2023-05-07T05:29:21;101548.50;;;17.05;61.10
46944;BME280;32678;43.852;25.952;2023-05-07T05:34:19;101553.94;;;17.02;61.03
46944;BME280;32678;43.852;25.952;2023-05-07T05:39:17;101564.81;;;16.77;61.98
46944;BME280;32678;43.852;25.952;2023-05-07T05:44:14;101558.59;;;16.58;63.13
46944;BME280;32678;43.852;25.952;2023-05-07T05:49:12;101547.13;;;16.77;62.35
46944;BME280;32678;43.852;25.952;2023-05-07T05:54:09;101559.94;;;17.24;61.54
46944;BME280;32678;43.852;25.952;2023-05-07T05:59:06;101562.03;;;17.72;58.27
46944;BME280;32678;43.852;25.952;2023-05-07T06:04:03;101559.53;;;17.50;57.57
46944;BME280;32678;43.852;25.952;2023-05-07T06:09:01;101554.88;;;17.55;59.70
46944;BME280;32678;43.852;25.952;2023-05-07T06:14:05;101558.16;;;16.68;62.23
46944;BME280;32678;43.852;25.952;2023-05-07T06:19:02;101563.38;;;17.07;60.78
46944;BME280;32678;43.852;25.952;2023-05-07T06:23:59;101554.81;;;17.57;59.91
46944;BME280;32678;43.852;25.952;2023-05-07T06:28:56;101554.81;;;17.57;59.72
46944;BME280;32678;43.852;25.952;2023-05-07T06:33:53;101552.66;;;17.65;59.19
46944;BME280;32678;43.852;25.952;2023-05-07T06:38:53;101552.75;;;17.81;58.25
46944;BME280;32678;43.852;25.952;2023-05-07T06:43:50;101558.47;;;17.54;59.28
46944;BME280;32678;43.852;25.952;2023-05-07T06:49:00;101555.47;;;17.43;58.06
46944;BME280;32678;43.852;25.952;2023-05-07T06:53:58;101562.69;;;17.04;58.56
46944;BME280;32678;43.852;25.952;2023-05-07T06:58:55;101550.69;;;17.32;57.48
46944;BME280;32678;43.852;25.952;2023-05-07T07:03:51;101560.81;;;17.24;56.61
46944;BME280;32678;43.852;25.952;2023-05-07T07:08:51;101552.63;;;17.84;54.62
46944;BME280;32678;43.852;25.952;2023-05-07T07:13:49;101560.63;;;17.99;54.56
46944;BME280;32678;43.852;25.952;2023-05-07T07:18:46;101549.50;;;18.60;46.89
46944;BME280;32678;43.852;25.952;2023-05-07T07:23:43;101554.88;;;18.58;45.69
46944;BME280;32678;43.852;25.952;2023-05-07T07:28:43;101555.00;;;18.73;45.74
46944;BME280;32678;43.852;25.952;2023-05-07T07:33:43;101556.56;;;18.92;45.27
46944;BME280;32678;43.852;25.952;2023-05-07T07:38:41;101555.41;;;19.14;44.70
46944;BME280;32678;43.852;25.952;2023-05-07T07:43:38;101555.63;;;19.72;44.26
46944;BME280;32678;43.852;25.952;2023-05-07T07:48:36;101556.84;;;19.51;46.36
46944;BME280;32678;43.852;25.952;2023-05-07T07:53:33;101549.59;;;19.84;43.52
46944;BME280;32678;43.852;25.952;2023-05-07T07:58:32;101546.50;;;19.76;41.96
46944;BME280;32678;43.852;25.952;2023-05-07T08:03:29;101556.25;;;19.91;40.89
46944;BME280;32678;43.852;25.952;2023-05-07T08:08:29;101552.19;;;20.00;39.62
46944;BME280;32678;43.852;25.952;2023-05-07T08:13:27;101552.91;;;20.17;39.94
46944;BME280;32678;43.852;25.952;2023-05-07T08:18:24;101550.69;;;20.10;41.56
46944;BME280;32678;43.852;25.952;2023-05-07T08:23:22;101551.22;;;20.30;38.50
46944;BME280;32678;43.852;25.952;2023-05-07T08:28:20;101541.38;;;20.47;41.27
46944;BME280;32678;43.852;25.952;2023-05-07T08:33:17;101546.78;;;20.59;42.14
46944;BME280;32678;43.852;25.952;2023-05-07T08:38:14;101543.81;;;20.36;38.03
46944;BME280;32678;43.852;25.952;2023-05-07T08:43:12;101543.34;;;20.71;38.89
46944;BME280;32678;43.852;25.952;2023-05-07T08:48:14;101542.00;;;20.79;40.99
46944;BME280;32678;43.852;25.952;2023-05-07T08:53:12;101510.94;;;20.92;40.13
46944;BME280;32678;43.852;25.952;2023-05-07T08:58:10;101513.59;;;21.20;40.48
46944;BME280;32678;43.852;25.952;2023-05-07T09:03:08;101509.69;;;21.26;38.82
46944;BME280;32678;43.852;25.952;2023-05-07T09:08:14;101507.03;;;21.38;38.77
46944;BME280;32678;43.852;25.952;2023-05-07T09:13:13;101510.28;;;21.56;39.61
46944;BME280;32678;43.852;25.952;2023-05-07T09:18:11;101501.25;;;21.71;40.50
46944;BME280;32678;43.852;25.952;2023-05-07T09:23:09;101499.50;;;21.84;39.00
46944;BME280;32678;43.852;25.952;2023-05-07T09:28:07;101496.09;;;21.95;39.10
46944;BME280;32678;43.852;25.952;2023-05-07T09:33:05;101481.38;;;22.02;38.86
46944;BME280;32678;43.852;25.952;2023-05-07T09:38:05;101477.44;;;22.08;38.69
46944;BME280;32678;43.852;25.952;2023-05-07T09:43:09;101483.31;;;22.13;37.70
46944;BME280;32678;43.852;25.952;2023-05-07T09:48:08;101479.75;;;22.25;36.98
46944;BME280;32678;43.852;25.952;2023-05-07T09:53:08;101461.59;;;22.30;36.46
46944;BME280;32678;43.852;25.952;2023-05-07T09:58:06;101466.59;;;22.34;36.37
46944;BME280;32678;43.852;25.952;2023-05-07T10:03:05;101464.25;;;22.42;36.51
46944;BME280;32678;43.852;25.952;2023-05-07T10:08:12;101453.00;;;22.50;35.92
46944;BME280;32678;43.852;25.952;2023-05-07T10:13:10;101460.53;;;22.32;35.54
46944;BME280;32678;43.852;25.952;2023-05-07T10:18:12;101456.88;;;22.33;35.70
46944;BME280;32678;43.852;25.952;2023-05-07T10:23:13;101454.72;;;22.38;35.24
46944;BME280;32678;43.852;25.952;2023-05-07T10:28:13;101439.88;;;22.47;35.36
46944;BME280;32678;43.852;25.952;2023-05-07T10:33:13;101437.53;;;22.42;33.27
46944;BME280;32678;43.852;25.952;2023-05-07T10:38:13;101426.09;;;22.40;33.79
46944;BME280;32678;43.852;25.952;2023-05-07T10:43:12;101435.31;;;22.24;34.48
46944;BME280;32678;43.852;25.952;2023-05-07T10:48:16;101438.50;;;22.29;34.47
46944;BME280;32678;43.852;25.952;2023-05-07T10:53:35;101438.31;;;22.19;34.87
46944;BME280;32678;43.852;25.952;2023-05-07T10:58:44;101422.41;;;22.05;33.51
46944;BME280;32678;43.852;25.952;2023-05-07T11:09:04;101407.19;;;22.31;32.98
46944;BME280;32678;43.852;25.952;2023-05-07T11:14:17;101403.81;;;22.16;33.16
46944;BME280;32678;43.852;25.952;2023-05-07T11:19:50;101402.38;;;22.36;32.54
46944;BME280;32678;43.852;25.952;2023-05-07T11:24:57;101407.53;;;22.75;33.14
46944;BME280;32678;43.852;25.952;2023-05-07T11:29:55;101400.63;;;22.97;32.62
46944;BME280;32678;43.852;25.952;2023-05-07T11:34:52;101404.13;;;23.21;32.64
46944;BME280;32678;43.852;25.952;2023-05-07T11:39:50;101406.25;;;23.40;32.88
46944;BME280;32678;43.852;25.952;2023-05-07T11:44:51;101405.56;;;23.49;32.77
46944;BME280;32678;43.852;25.952;2023-05-07T11:49:47;101394.97;;;23.47;32.39
46944;BME280;32678;43.852;25.952;2023-05-07T11:54:48;101388.47;;;23.39;32.24
46944;BME280;32678;43.852;25.952;2023-05-07T11:59:45;101375.28;;;23.48;32.57
46944;BME280;32678;43.852;25.952;2023-05-07T12:04:44;101372.16;;;23.30;31.71
46944;BME280;32678;43.852;25.952;2023-05-07T12:09:41;101373.75;;;23.33;32.52
46944;BME280;32678;43.852;25.952;2023-05-07T12:14:38;101363.91;;;23.33;32.28
46944;BME280;32678;43.852;25.952;2023-05-07T12:19:36;101360.81;;;23.16;32.27
46944;BME280;32678;43.852;25.952;2023-05-07T12:24:43;101359.91;;;23.04;32.59
46944;BME280;32678;43.852;25.952;2023-05-07T12:29:40;101352.19;;;22.88;32.74
46944;BME280;32678;43.852;25.952;2023-05-07T12:34:42;101344.81;;;22.56;33.49
46944;BME280;32678;43.852;25.952;2023-05-07T12:39:44;101347.38;;;22.21;33.65
46944;BME280;32678;43.852;25.952;2023-05-07T12:44:41;101343.78;;;22.69;34.54
46944;BME280;32678;43.852;25.952;2023-05-07T12:49:41;101353.50;;;23.18;33.07
46944;BME280;32678;43.852;25.952;2023-05-07T12:54:38;101344.03;;;23.49;33.43
46944;BME280;32678;43.852;25.952;2023-05-07T12:59:35;101327.72;;;23.52;32.08
46944;BME280;32678;43.852;25.952;2023-05-07T13:04:32;101334.94;;;23.73;32.74
46944;BME280;32678;43.852;25.952;2023-05-07T13:09:29;101327.25;;;23.91;32.63
46944;BME280;32678;43.852;25.952;2023-05-07T13:14:27;101328.31;;;24.11;32.42
46944;BME280;32678;43.852;25.952;2023-05-07T13:19:24;101313.00;;;24.13;32.41
46944;BME280;32678;43.852;25.952;2023-05-07T13:24:20;101305.44;;;24.29;32.80
46944;BME280;32678;43.852;25.952;2023-05-07T13:29:17;101293.75;;;24.19;32.46
46944;BME280;32678;43.852;25.952;2023-05-07T13:34:14;101303.09;;;24.36;32.75
46944;BME280;32678;43.852;25.952;2023-05-07T13:39:11;101300.41;;;24.47;32.16
46944;BME280;32678;43.852;25.952;2023-05-07T13:44:08;101292.22;;;24.48;32.60
46944;BME280;32678;43.852;25.952;2023-05-07T13:49:04;101304.41;;;24.52;32.00
46944;BME280;32678;43.852;25.952;2023-05-07T13:54:01;101292.84;;;24.52;32.08
46944;BME280;32678;43.852;25.952;2023-05-07T13:58:59;101310.19;;;24.69;31.97
46944;BME280;32678;43.852;25.952;2023-05-07T14:03:56;101309.06;;;24.82;32.07
46944;BME280;32678;43.852;25.952;2023-05-07T14:08:56;101312.94;;;24.78;31.65
46944;BME280;32678;43.852;25.952;2023-05-07T14:13:53;101309.88;;;24.83;31.87
46944;BME280;32678;43.852;25.952;2023-05-07T14:18:51;101312.81;;;24.80;32.12
46944;BME280;32678;43.852;25.952;2023-05-07T14:23:47;101312.25;;;24.76;32.01
46944;BME280;32678;43.852;25.952;2023-05-07T14:28:44;101304.66;;;24.81;32.06
46944;BME280;32678;43.852;25.952;2023-05-07T14:33:43;101289.75;;;24.68;31.79
46944;BME280;32678;43.852;25.952;2023-05-07T14:38:40;101296.09;;;24.55;31.35
46944;BME280;32678;43.852;25.952;2023-05-07T14:43:37;101296.13;;;24.44;32.26
46944;BME280;32678;43.852;25.952;2023-05-07T14:48:34;101296.00;;;24.46;32.90
46944;BME280;32678;43.852;25.952;2023-05-07T14:53:31;101300.78;;;24.42;32.87
46944;BME280;32678;43.852;25.952;2023-05-07T14:58:28;101308.38;;;23.82;32.99
46944;BME280;32678;43.852;25.952;2023-05-07T15:03:25;101298.09;;;23.31;33.42
46944;BME280;32678;43.852;25.952;2023-05-07T15:08:21;101294.66;;;23.18;34.29
46944;BME280;32678;43.852;25.952;2023-05-07T15:13:21;101289.16;;;23.54;34.06
46944;BME280;32678;43.852;25.952;2023-05-07T15:18:19;101291.97;;;23.64;34.83
46944;BME280;32678;43.852;25.952;2023-05-07T15:23:18;101286.34;;;23.56;34.24
46944;BME280;32678;43.852;25.952;2023-05-07T15:28:17;101283.16;;;22.94;34.81
46944;BME280;32678;43.852;25.952;2023-05-07T15:33:14;101276.09;;;22.93;34.92
46944;BME280;32678;43.852;25.952;2023-05-07T15:38:12;101268.19;;;23.26;34.86
46944;BME280;32678;43.852;25.952;2023-05-07T15:43:09;101271.81;;;23.36;34.69
46944;BME280;32678;43.852;25.952;2023-05-07T15:48:06;101276.09;;;22.93;35.00
46944;BME280;32678;43.852;25.952;2023-05-07T15:53:03;101272.47;;;22.94;35.28
46944;BME280;32678;43.852;25.952;2023-05-07T15:58:01;101273.97;;;22.74;35.71
46944;BME280;32678;43.852;25.952;2023-05-07T16:02:59;101272.84;;;22.41;36.18
46944;BME280;32678;43.852;25.952;2023-05-07T16:07:56;101276.38;;;22.42;36.68
46944;BME280;32678;43.852;25.952;2023-05-07T16:12:53;101275.00;;;22.60;36.55
46944;BME280;32678;43.852;25.952;2023-05-07T16:17:51;101269.94;;;22.44;36.69
46944;BME280;32678;43.852;25.952;2023-05-07T16:22:52;101269.25;;;22.54;37.02
46944;BME280;32678;43.852;25.952;2023-05-07T16:27:49;101270.44;;;22.26;36.87
46944;BME280;32678;43.852;25.952;2023-05-07T16:32:46;101265.50;;;22.32;36.82
46944;BME280;32678;43.852;25.952;2023-05-07T16:37:43;101261.19;;;22.42;36.90
46944;BME280;32678;43.852;25.952;2023-05-07T16:42:40;101263.91;;;22.54;36.42
46944;BME280;32678;43.852;25.952;2023-05-07T16:47:37;101264.94;;;22.40;36.62
46944;BME280;32678;43.852;25.952;2023-05-07T16:52:33;101262.50;;;22.37;36.69
46944;BME280;32678;43.852;25.952;2023-05-07T16:57:31;101265.19;;;22.24;36.65
46944;BME280;32678;43.852;25.952;2023-05-07T17:02:27;101265.69;;;22.18;36.51
46944;BME280;32678;43.852;25.952;2023-05-07T17:07:24;101266.13;;;21.99;37.30
46944;BME280;32678;43.852;25.952;2023-05-07T17:12:21;101257.50;;;22.09;37.09
46944;BME280;32678;43.852;25.952;2023-05-07T17:17:19;101254.28;;;22.03;37.19
46944;BME280;32678;43.852;25.952;2023-05-07T17:22:15;101264.84;;;22.05;37.32
46944;BME280;32678;43.852;25.952;2023-05-07T17:27:12;101256.50;;;22.10;37.44
46944;BME280;32678;43.852;25.952;2023-05-07T17:32:09;101263.00;;;22.18;37.48
46944;BME280;32678;43.852;25.952;2023-05-07T17:37:06;101273.56;;;22.20;37.26
46944;BME280;32678;43.852;25.952;2023-05-07T17:42:03;101271.53;;;22.23;37.37
46944;BME280;32678;43.852;25.952;2023-05-07T17:47:00;101263.84;;;22.19;37.24
46944;BME280;32678;43.852;25.952;2023-05-07T17:51:57;101282.56;;;22.42;37.22
46944;BME280;32678;43.852;25.952;2023-05-07T17:56:54;101286.19;;;22.41;37.68
46944;BME280;32678;43.852;25.952;2023-05-07T18:01:51;101293.09;;;22.33;37.85
46944;BME280;32678;43.852;25.952;2023-05-07T18:06:48;101294.16;;;22.30;37.89
46944;BME280;32678;43.852;25.952;2023-05-07T18:11:45;101298.72;;;22.41;38.15
46944;BME280;32678;43.852;25.952;2023-05-07T18:16:42;101302.00;;;22.44;38.28
46944;BME280;32678;43.852;25.952;2023-05-07T18:21:39;101309.66;;;22.49;38.50
46944;BME280;32678;43.852;25.952;2023-05-07T18:26:35;101314.47;;;22.33;38.76
46944;BME280;32678;43.852;25.952;2023-05-07T18:31:32;101319.28;;;22.28;38.78
46944;BME280;32678;43.852;25.952;2023-05-07T18:36:34;101315.03;;;22.13;38.84
46944;BME280;32678;43.852;25.952;2023-05-07T18:41:30;101318.06;;;21.95;39.43
46944;BME280;32678;43.852;25.952;2023-05-07T18:46:27;101321.50;;;21.97;38.89
46944;BME280;32678;43.852;25.952;2023-05-07T18:51:24;101332.88;;;21.87;39.18
46944;BME280;32678;43.852;25.952;2023-05-07T18:56:22;101336.53;;;21.73;39.18
46944;BME280;32678;43.852;25.952;2023-05-07T19:01:19;101330.56;;;21.70;39.58
46944;BME280;32678;43.852;25.952;2023-05-07T19:06:16;101319.34;;;21.52;39.54
46944;BME280;32678;43.852;25.952;2023-05-07T19:11:13;101324.91;;;21.61;39.85
46944;BME280;32678;43.852;25.952;2023-05-07T19:16:10;101324.16;;;21.59;39.69
46944;BME280;32678;43.852;25.952;2023-05-07T19:21:08;101327.16;;;21.55;39.55
46944;BME280;32678;43.852;25.952;2023-05-07T19:26:05;101334.69;;;21.36;40.07
46944;BME280;32678;43.852;25.952;2023-05-07T19:31:02;101323.72;;;21.28;39.95
46944;BME280;32678;43.852;25.952;2023-05-07T19:35:59;101331.41;;;21.32;40.04
46944;BME280;32678;43.852;25.952;2023-05-07T19:40:55;101339.63;;;21.29;39.82
46944;BME280;32678;43.852;25.952;2023-05-07T19:45:52;101327.69;;;21.35;39.60
46944;BME280;32678;43.852;25.952;2023-05-07T19:50:49;101335.66;;;21.22;39.78
46944;BME280;32678;43.852;25.952;2023-05-07T19:55:47;101339.72;;;21.15;39.70
46944;BME280;32678;43.852;25.952;2023-05-07T20:00:43;101341.34;;;21.03;39.85
46944;BME280;32678;43.852;25.952;2023-05-07T20:05:40;101343.69;;;21.08;39.78
46944;BME280;32678;43.852;25.952;2023-05-07T20:10:37;101336.53;;;20.96;40.12
46944;BME280;32678;43.852;25.952;2023-05-07T20:15:35;101327.13;;;20.90;40.03
46944;BME280;32678;43.852;25.952;2023-05-07T20:20:32;101315.38;;;20.80;40.09
46944;BME280;32678;43.852;25.952;2023-05-07T20:25:29;101330.66;;;20.64;40.73
46944;BME280;32678;43.852;25.952;2023-05-07T20:30:25;101336.25;;;20.47;40.93
46944;BME280;32678;43.852;25.952;2023-05-07T20:35:23;101348.75;;;20.32;41.30
46944;BME280;32678;43.852;25.952;2023-05-07T20:40:20;101350.94;;;19.97;42.41
46944;BME280;32678;43.852;25.952;2023-05-07T20:45:16;101342.69;;;19.73;42.68
46944;BME280;32678;43.852;25.952;2023-05-07T20:50:13;101350.25;;;19.79;42.31
46944;BME280;32678;43.852;25.952;2023-05-07T20:55:11;101348.38;;;19.53;42.77
46944;BME280;32678;43.852;25.952;2023-05-07T21:00:08;101349.22;;;19.54;42.90
46944;BME280;32678;43.852;25.952;2023-05-07T21:05:05;101352.56;;;19.41;43.37
46944;BME280;32678;43.852;25.952;2023-05-07T21:10:02;101357.69;;;19.30;43.27
46944;BME280;32678;43.852;25.952;2023-05-07T21:14:59;101352.78;;;18.63;44.88
46944;BME280;32678;43.852;25.952;2023-05-07T21:19:56;101349.28;;;18.63;45.21
46944;BME280;32678;43.852;25.952;2023-05-07T21:24:52;101351.03;;;18.15;46.38
46944;BME280;32678;43.852;25.952;2023-05-07T21:29:49;101350.88;;;17.69;47.72
46944;BME280;32678;43.852;25.952;2023-05-07T21:34:46;101351.34;;;17.78;47.49
46944;BME280;32678;43.852;25.952;2023-05-07T21:39:42;101345.91;;;17.63;47.37
46944;BME280;32678;43.852;25.952;2023-05-07T21:44:39;101345.13;;;17.44;48.06
46944;BME280;32678;43.852;25.952;2023-05-07T21:49:36;101339.88;;;17.25;48.46
46944;BME280;32678;43.852;25.952;2023-05-07T21:54:33;101341.28;;;17.15;48.50
46944;BME280;32678;43.852;25.952;2023-05-07T21:59:30;101344.50;;;17.05;48.36
46944;BME280;32678;43.852;25.952;2023-05-07T22:04:26;101343.72;;;16.85;48.97
46944;BME280;32678;43.852;25.952;2023-05-07T22:09:23;101342.53;;;16.74;49.05
46944;BME280;32678;43.852;25.952;2023-05-07T22:14:20;101331.75;;;16.60;49.42
46944;BME280;32678;43.852;25.952;2023-05-07T22:19:17;101353.78;;;16.60;49.43
46944;BME280;32678;43.852;25.952;2023-05-07T22:24:13;101363.59;;;16.58;49.63
46944;BME280;32678;43.852;25.952;2023-05-07T22:29:10;101351.72;;;16.29;50.22
46944;BME280;32678;43.852;25.952;2023-05-07T22:34:07;101339.28;;;16.31;49.87
46944;BME280;32678;43.852;25.952;2023-05-07T22:39:04;101329.09;;;16.41;49.02
46944;BME280;32678;43.852;25.952;2023-05-07T22:44:02;101331.94;;;16.55;48.39
46944;BME280;32678;43.852;25.952;2023-05-07T22:48:59;101340.75;;;16.74;47.77
46944;BME280;32678;43.852;25.952;2023-05-07T22:53:56;101333.59;;;16.94;47.23
46944;BME280;32678;43.852;25.952;2023-05-07T22:58:53;101330.94;;;16.94;46.73
46944;BME280;32678;43.852;25.952;2023-05-07T23:03:49;101338.56;;;16.82;46.76
46944;BME280;32678;43.852;25.952;2023-05-07T23:08:46;101329.28;;;17.43;46.76
46944;BME280;32678;43.852;25.952;2023-05-07T23:13:44;101331.28;;;17.72;44.29
46944;BME280;32678;43.852;25.952;2023-05-07T23:18:40;101342.13;;;18.00;44.49
46944;BME280;32678;43.852;25.952;2023-05-07T23:23:37;101340.97;;;18.37;44.47
46944;BME280;32678;43.852;25.952;2023-05-07T23:28:33;101330.00;;;18.75;43.41
46944;BME280;32678;43.852;25.952;2023-05-07T23:33:31;101322.19;;;18.72;41.18
46944;BME280;32678;43.852;25.952;2023-05-07T23:38:27;101316.63;;;18.29;40.99
46944;BME280;32678;43.852;25.952;2023-05-07T23:43:24;101312.94;;;18.00;41.59
46944;BME280;32678;43.852;25.952;2023-05-07T23:48:20;101311.44;;;17.79;42.18
46944;BME280;32678;43.852;25.952;2023-05-07T23:53:18;101313.09;;;17.82;42.85
46944;BME280;32678;43.852;25.952;2023-05-07T23:58:14;101304.78;;;18.03;41.81
